Time;durP1;ratioP1;P1;durP2;ratioP2;P2;SDS_P1;SDS_P2;PMS_P1;PMS_P2;Temp;Humidity;BMP_temperature;BMP_pressure;BME280_temperature;BME280_humidity;BME280_pressure;Samples;Min_cycle;Max_cycle;Signal;HPM_P1;HPM_P2
2022/06/12 00:00:24;;;;;;;6.00;3.05;;;17.30;99.90;;;;;;5081340;28;20041;-72
2022/06/12 00:02:50;;;;;;;3.95;2.47;;;17.30;99.90;;;;;;5073096;28;20441;-71
2022/06/12 00:05:19;;;;;;;4.20;2.85;;;17.20;99.90;;;;;;5067537;28;20059;-71
2022/06/12 00:07:45;;;;;;;4.15;2.72;;;17.20;99.90;;;;;;5076349;28;20059;-71
2022/06/12 00:10:12;;;;;;;3.67;2.97;;;17.20;99.90;;;;;;5067154;28;20497;-71
2022/06/12 00:12:40;;;;;;;4.18;2.53;;;17.10;99.90;;;;;;5064340;28;20082;-71
2022/06/12 00:15:07;;;;;;;3.88;2.75;;;17.10;99.90;;;;;;5072080;28;20051;-71
2022/06/12 00:17:33;;;;;;;3.47;2.50;;;17.10;99.90;;;;;;5075695;28;20051;-71
2022/06/12 00:19:58;;;;;;;4.68;3.17;;;17.00;99.90;;;;;;5056755;28;20025;-70
2022/06/12 00:22:24;;;;;;;3.55;2.55;;;17.00;99.90;;;;;;5071809;28;20016;-72
2022/06/12 00:24:51;;;;;;;5.13;2.83;;;16.90;99.90;;;;;;5072881;28;20029;-72
2022/06/12 00:27:17;;;;;;;4.15;2.53;;;16.90;99.90;;;;;;5074558;28;20055;-71
2022/06/12 00:29:44;;;;;;;4.60;2.95;;;16.90;99.90;;;;;;5072471;28;20053;-71
2022/06/12 00:32:13;;;;;;;5.28;3.13;;;16.80;99.90;;;;;;5067680;28;20462;-73
2022/06/12 00:34:45;;;;;;;2.83;2.63;;;16.80;99.90;;;;;;5064976;28;20094;-71
2022/06/12 00:37:13;;;;;;;3.00;2.60;;;16.80;99.90;;;;;;5065720;28;20032;-73
2022/06/12 00:39:41;;;;;;;4.68;3.03;;;16.80;99.90;;;;;;5065577;28;20036;-71
2022/06/12 00:42:09;;;;;;;5.03;3.05;;;16.70;99.90;;;;;;5070033;28;20032;-70
2022/06/12 00:44:41;;;;;;;6.15;2.90;;;16.70;99.90;;;;;;5059611;28;20033;-71
2022/06/12 00:47:10;;;;;;;4.55;3.38;;;16.70;99.90;;;;;;5065879;28;20044;-71
2022/06/12 00:49:42;;;;;;;3.10;2.85;;;16.60;99.90;;;;;;5070587;28;20099;-71
2022/06/12 00:52:17;;;;;;;3.50;2.90;;;16.60;99.90;;;;;;5076626;28;20024;-72
2022/06/12 00:54:46;;;;;;;3.28;2.85;;;16.60;99.90;;;;;;5070336;28;20051;-71
2022/06/12 00:57:13;;;;;;;3.92;2.90;;;16.50;99.90;;;;;;5064854;28;20119;-71
2022/06/12 00:59:43;;;;;;;5.00;2.90;;;16.50;99.90;;;;;;5068273;28;20032;-70
2022/06/12 01:02:11;;;;;;;;;;;16.50;99.90;;;;;;5060105;28;20079;-71
2022/06/12 01:07:24;;;;;;;7.05;3.60;;;16.50;99.90;;;;;;5065415;28;20078;-71
2022/06/12 01:09:53;;;;;;;4.82;2.90;;;16.50;99.90;;;;;;5071293;28;20025;-71
2022/06/12 01:12:24;;;;;;;4.45;3.08;;;16.40;99.90;;;;;;5065947;28;20031;-71
2022/06/12 01:14:55;;;;;;;7.00;3.40;;;16.30;99.90;;;;;;5061656;28;20536;-71
2022/06/12 01:17:23;;;;;;;4.15;3.30;;;16.40;99.90;;;;;;5060951;28;20025;-71
2022/06/12 01:19:55;;;;;;;4.30;3.90;;;16.30;99.90;;;;;;5070997;28;20056;-71
2022/06/12 01:22:46;;;;;;;3.90;3.47;;;16.30;99.90;;;;;;5068757;28;20498;-72
2022/06/12 01:25:41;;;;;;;5.93;3.20;;;16.20;99.90;;;;;;5061222;28;20033;-71
2022/06/12 01:28:35;;;;;;;4.72;2.97;;;16.20;99.90;;;;;;5030533;28;20423;-71
2022/06/12 01:31:28;;;;;;;3.85;3.03;;;16.20;99.90;;;;;;5070504;28;20048;-71
2022/06/12 01:34:18;;;;;;;3.78;3.17;;;16.20;99.90;;;;;;5067456;28;20020;-71
2022/06/12 01:37:00;;;;;;;3.63;2.95;;;16.20;99.90;;;;;;5064706;28;20132;-71
2022/06/12 01:39:40;;;;;;;4.55;3.60;;;16.10;99.90;;;;;;5065369;28;20466;-70
2022/06/12 01:42:17;;;;;;;;;;;16.10;99.90;;;;;;5068870;28;20039;-70
2022/06/12 01:45:01;;;;;;;3.88;3.38;;;16.10;99.90;;;;;;5064574;28;19912;-71
2022/06/12 01:47:35;;;;;;;3.33;3.00;;;16.00;99.90;;;;;;5069734;28;20436;-71
2022/06/12 01:50:47;;;;;;;3.83;2.90;;;16.00;99.90;;;;;;5069166;28;20036;-71
2022/06/12 01:53:51;;;;;;;3.67;3.15;;;16.00;99.90;;;;;;5021409;28;20147;-70
2022/06/12 01:56:23;;;;;;;9.60;3.35;;;15.90;99.90;;;;;;5068236;28;20091;-71
2022/06/12 01:59:05;;;;;;;3.97;3.30;;;15.90;99.90;;;;;;5069471;28;20037;-72
2022/06/12 02:01:43;;;;;;;3.55;3.10;;;15.80;99.90;;;;;;5071751;28;20138;-71
2022/06/12 02:04:13;;;;;;;6.80;3.15;;;15.80;99.90;;;;;;5071433;28;20016;-71
2022/06/12 02:06:47;;;;;;;5.28;3.78;;;15.80;99.90;;;;;;5054237;28;20378;-71
2022/06/12 02:09:21;;;;;;;4.65;3.25;;;15.80;99.90;;;;;;5068625;28;20056;-71
2022/06/12 02:14:48;;;;;;;4.70;3.10;;;15.70;99.90;;;;;;5069066;28;20040;-70
2022/06/12 02:17:20;;;;;;;4.03;3.58;;;15.70;99.90;;;;;;5064305;28;20025;-71
2022/06/12 02:19:47;;;;;;;4.65;3.55;;;15.70;99.90;;;;;;5074608;28;20095;-72
2022/06/12 02:22:24;;;;;;;4.60;3.55;;;15.70;99.90;;;;;;5075224;28;20089;-72
2022/06/12 02:25:03;;;;;;;4.80;3.70;;;15.70;99.90;;;;;;5065204;28;20107;-72
2022/06/12 02:27:39;;;;;;;4.97;3.55;;;15.70;99.90;;;;;;5069057;28;20070;-68
2022/06/12 02:30:11;;;;;;;5.53;3.78;;;15.60;99.90;;;;;;5073758;28;20041;-71
2022/06/12 02:32:42;;;;;;;5.07;3.55;;;15.60;99.90;;;;;;5067057;28;20386;-71
2022/06/12 02:35:17;;;;;;;6.00;4.22;;;15.60;99.90;;;;;;5076887;28;20047;-71
2022/06/12 02:37:49;;;;;;;8.38;4.10;;;15.50;99.90;;;;;;5074693;28;20063;-71
2022/06/12 02:40:21;;;;;;;4.97;3.92;;;15.50;99.90;;;;;;5066800;28;20104;-71
2022/06/12 02:42:49;;;;;;;5.72;3.90;;;15.50;99.90;;;;;;5070151;28;20040;-71
2022/06/12 02:45:25;;;;;;;6.43;4.07;;;15.60;99.90;;;;;;5075484;28;20020;-71
2022/06/12 02:47:51;;;;;;;4.82;3.80;;;15.70;99.90;;;;;;5073456;28;20027;-72
2022/06/12 02:50:21;;;;;;;4.25;3.78;;;;;;;;;;5072705;28;20037;-71
2022/06/12 02:53:01;;;;;;;5.30;3.33;;;15.40;99.90;;;;;;5070913;28;20054;-71
2022/06/12 02:55:39;;;;;;;6.43;4.45;;;15.40;99.90;;;;;;5068653;28;20099;-71
2022/06/12 02:58:25;;;;;;;4.43;3.88;;;15.40;99.90;;;;;;5068021;28;20070;-71
2022/06/12 03:01:03;;;;;;;3.95;3.28;;;15.40;99.90;;;;;;5071071;28;20062;-71
2022/06/12 03:03:29;;;;;;;6.25;3.50;;;15.40;99.90;;;;;;5070516;28;20039;-71
2022/06/12 03:05:58;;;;;;;4.18;3.65;;;15.30;99.90;;;;;;5070608;28;20020;-71
2022/06/12 03:08:30;;;;;;;5.32;4.05;;;15.30;99.90;;;;;;5073592;28;20048;-71
2022/06/12 03:11:00;;;;;;;6.38;4.15;;;15.30;99.90;;;;;;5071049;28;20470;-71
2022/06/12 03:13:29;;;;;;;5.82;3.55;;;15.30;99.90;;;;;;5073004;28;20024;-71
2022/06/12 03:15:57;;;;;;;4.85;3.83;;;15.30;99.90;;;;;;5070343;28;20027;-71
2022/06/12 03:18:25;;;;;;;4.75;4.15;;;15.20;99.90;;;;;;5070414;28;20033;-70
2022/06/12 03:21:15;;;;;;;5.22;3.80;;;15.20;99.90;;;;;;5070001;28;20024;-70
2022/06/12 03:23:58;;;;;;;4.75;4.15;;;15.30;99.90;;;;;;5070003;28;20029;-71
2022/06/12 03:26:50;;;;;;;3.80;3.33;;;15.20;99.90;;;;;;5068568;28;20051;-72
2022/06/12 03:29:25;;;;;;;5.65;3.58;;;15.20;99.90;;;;;;5078913;28;20166;-72
2022/06/12 03:32:03;;;;;;;4.30;3.55;;;15.20;99.90;;;;;;5091146;28;20114;-70
2022/06/12 03:34:49;;;;;;;4.97;3.72;;;15.10;99.90;;;;;;5090165;28;20035;-72
2022/06/12 03:37:48;;;;;;;6.00;4.03;;;15.10;99.90;;;;;;5090496;28;20016;-71
2022/06/12 03:40:44;;;;;;;4.93;4.00;;;15.20;99.90;;;;;;5084874;28;20452;-71
2022/06/12 03:43:28;;;;;;;5.93;3.85;;;15.20;99.90;;;;;;5083503;28;20040;-71
2022/06/12 03:46:03;;;;;;;4.13;3.72;;;15.20;99.90;;;;;;5084190;28;20161;-70
2022/06/12 03:48:39;;;;;;;6.25;4.40;;;15.20;99.90;;;;;;5097431;28;20024;-71
2022/06/12 03:51:04;;;;;;;5.38;3.72;;;15.20;99.90;;;;;;5083839;28;20111;-70
2022/06/12 03:53:54;;;;;;;4.35;3.65;;;15.20;99.90;;;;;;5096765;28;20193;-71
2022/06/12 03:59:44;;;;;;;7.47;4.75;;;15.20;99.90;;;;;;5076441;28;20089;-71
2022/06/12 04:02:13;;;;;;;6.88;4.20;;;15.20;99.90;;;;;;5092320;28;20461;-70
2022/06/12 04:04:41;;;;;;;6.47;4.13;;;15.30;99.90;;;;;;5092006;28;20028;-71
2022/06/12 04:07:09;;;;;;;5.40;3.90;;;15.30;99.90;;;;;;5085177;28;20465;-71
2022/06/12 04:09:41;;;;;;;7.35;4.22;;;15.30;99.90;;;;;;5089397;28;20164;-70
2022/06/12 04:12:14;;;;;;;7.97;4.53;;;15.30;99.90;;;;;;5090608;28;20028;-71
2022/06/12 04:14:58;;;;;;;5.85;4.57;;;15.40;99.90;;;;;;5089926;28;20033;-71
2022/06/12 04:17:24;;;;;;;8.70;4.85;;;15.40;99.90;;;;;;5076275;28;20095;-71
2022/06/12 04:19:59;;;;;;;5.85;4.43;;;15.40;99.90;;;;;;5090400;28;20475;-71
2022/06/12 04:22:41;;;;;;;7.28;4.68;;;15.40;99.90;;;;;;5092752;28;20368;-71
2022/06/12 04:25:38;;;;;;;5.80;4.70;;;15.50;99.90;;;;;;5085078;28;20035;-71
2022/06/12 04:28:07;;;;;;;5.05;4.53;;;15.60;99.90;;;;;;5083377;28;20495;-71
2022/06/12 04:30:36;;;;;;;7.30;4.47;;;15.60;99.90;;;;;;5068764;28;20053;-72
2022/06/12 04:33:40;;;;;;;6.73;4.57;;;15.70;99.90;;;;;;5085452;28;20023;-70
2022/06/12 04:36:08;;;;;;;7.50;5.13;;;15.80;99.90;;;;;;5014612;28;20275;-70
2022/06/12 04:38:35;;;;;;;6.72;4.63;;;15.90;99.90;;;;;;5072294;28;20379;-71
2022/06/12 04:41:02;;;;;;;5.03;4.35;;;15.90;99.90;;;;;;5063995;28;20036;-71
2022/06/12 04:43:28;;;;;;;6.95;4.70;;;16.00;99.90;;;;;;5076348;28;20082;-72
2022/06/12 04:45:55;;;;;;;10.55;5.10;;;16.10;99.90;;;;;;5060521;28;20024;-71
2022/06/12 04:48:39;;;;;;;6.40;5.10;;;16.10;99.90;;;;;;5070287;28;20024;-71
2022/06/12 04:51:06;;;;;;;5.60;4.22;;;16.20;99.90;;;;;;5072958;28;20081;-70
2022/06/12 04:53:33;;;;;;;9.70;5.00;;;16.30;99.90;;;;;;5071391;28;20033;-70
2022/06/12 04:55:58;;;;;;;7.30;4.55;;;16.40;99.90;;;;;;5072876;28;20469;-70
2022/06/12 04:58:25;;;;;;;8.77;5.15;;;16.50;99.90;;;;;;5071920;28;20112;-70
2022/06/12 05:00:50;;;;;;;7.72;5.10;;;16.60;99.90;;;;;;5069480;28;20197;-71
2022/06/12 05:03:16;;;;;;;5.85;4.78;;;16.60;99.90;;;;;;5073904;28;20454;-70
2022/06/12 05:05:43;;;;;;;5.80;4.40;;;16.70;99.90;;;;;;5070976;28;20438;-72
2022/06/12 05:08:08;;;;;;;6.82;5.07;;;16.80;99.90;;;;;;5042954;28;20369;-71
2022/06/12 05:10:35;;;;;;;6.45;5.15;;;16.90;99.90;;;;;;5061664;28;20040;-71
2022/06/12 05:13:01;;;;;;;7.35;5.55;;;17.00;99.90;;;;;;5067807;28;20461;-71
2022/06/12 05:15:26;;;;;;;11.35;6.40;;;17.10;99.90;;;;;;5063203;28;20111;-72
2022/06/12 05:17:52;;;;;;;7.70;6.22;;;17.30;99.90;;;;;;5069649;28;20025;-71
2022/06/12 05:20:21;;;;;;;8.10;5.60;;;17.40;99.90;;;;;;5059247;28;20078;-71
2022/06/12 05:22:47;;;;;;;10.23;6.05;;;17.40;99.90;;;;;;5067390;28;20067;-72
2022/06/12 05:25:14;;;;;;;5.97;5.25;;;17.50;99.90;;;;;;5066221;28;20020;-72
2022/06/12 05:27:40;;;;;;;11.63;5.63;;;17.60;99.90;;;;;;5057041;28;20041;-71
2022/06/12 05:30:07;;;;;;;6.25;4.97;;;17.70;99.90;;;;;;5068225;28;20053;-71
2022/06/12 05:32:33;;;;;;;9.90;5.68;;;17.70;99.90;;;;;;5072397;28;20099;-71
2022/06/12 05:34:58;;;;;;;8.82;5.53;;;17.90;99.90;;;;;;5066209;28;20028;-72
2022/06/12 05:37:25;;;;;;;8.65;5.50;;;17.90;99.90;;;;;;5069031;28;20029;-71
2022/06/12 05:39:50;;;;;;;8.82;5.43;;;18.10;99.90;;;;;;5070464;28;20472;-71
2022/06/12 05:42:16;;;;;;;7.35;5.68;;;18.20;99.90;;;;;;5061551;28;20028;-71
2022/06/12 05:44:42;;;;;;;8.15;5.63;;;18.40;99.90;;;;;;5072084;28;20326;-71
2022/06/12 05:47:09;;;;;;;6.00;4.90;;;18.40;99.90;;;;;;5069657;28;20395;-71
2022/06/12 05:49:35;;;;;;;8.45;5.03;;;18.50;99.90;;;;;;5073872;28;20028;-71
2022/06/12 05:52:00;;;;;;;6.70;5.35;;;18.60;99.90;;;;;;5072425;28;20040;-68
2022/06/12 05:54:27;;;;;;;7.68;4.90;;;18.60;99.90;;;;;;5075419;28;20419;-71
2022/06/12 05:56:52;;;;;;;8.40;4.95;;;18.70;99.90;;;;;;5067662;28;20417;-70
2022/06/12 05:59:18;;;;;;;5.82;4.40;;;18.80;99.90;;;;;;5055642;28;20036;-70
2022/06/12 06:01:44;;;;;;;4.95;3.80;;;18.80;99.90;;;;;;5071575;28;20033;-70
2022/06/12 06:04:10;;;;;;;8.32;4.85;;;18.90;99.90;;;;;;5076028;28;20025;-70
2022/06/12 06:06:58;;;;;;;5.82;4.28;;;19.00;99.90;;;;;;5073629;28;20028;-69
2022/06/12 06:09:25;;;;;;;5.72;4.18;;;19.10;99.90;;;;;;5078609;28;20037;-68
2022/06/12 06:11:51;;;;;;;7.00;4.18;;;19.20;99.90;;;;;;5070991;28;20028;-71
2022/06/12 06:14:17;;;;;;;6.10;4.70;;;19.30;99.90;;;;;;5070185;28;20028;-69
2022/06/12 06:16:43;;;;;;;6.97;4.20;;;19.50;99.90;;;;;;5078178;28;20036;-70
2022/06/12 06:19:10;;;;;;;7.97;5.13;;;19.70;99.90;;;;;;5073305;28;20040;-69
2022/06/12 06:21:36;;;;;;;7.15;5.43;;;19.80;99.90;;;;;;5066464;28;20045;-70
2022/06/12 06:24:03;;;;;;;6.88;4.15;;;20.00;99.90;;;;;;5071223;28;20021;-70
2022/06/12 06:26:28;;;;;;;7.00;4.80;;;20.10;99.90;;;;;;5057263;28;20493;-70
2022/06/12 06:28:56;;;;;;;7.38;4.65;;;20.30;99.90;;;;;;5063614;28;20048;-68
2022/06/12 06:31:23;;;;;;;7.78;4.80;;;20.40;99.90;;;;;;5076897;28;20392;-68
2022/06/12 06:33:49;;;;;;;9.07;4.63;;;20.40;99.90;;;;;;5074532;28;20499;-67
2022/06/12 06:36:16;;;;;;;10.52;4.32;;;20.60;99.90;;;;;;5072144;28;20033;-70
2022/06/12 06:38:43;;;;;;;8.35;4.68;;;20.60;99.90;;;;;;5074451;28;20039;-68
2022/06/12 06:41:09;;;;;;;5.68;3.72;;;20.70;99.90;;;;;;5063031;28;20036;-68
2022/06/12 06:46:13;;;;;;;6.50;4.50;;;20.70;99.90;;;;;;5071993;28;20032;-68
2022/06/12 06:46:21;;;;;;;7.40;4.05;;;20.80;99.90;;;;;;5074342;28;20035;-68
2022/06/12 06:48:47;;;;;;;9.40;4.78;;;20.90;99.90;;;;;;5072006;28;20151;-70
2022/06/12 06:51:13;;;;;;;5.72;3.97;;;21.00;99.90;;;;;;5057743;28;20140;-69
2022/06/12 06:53:39;;;;;;;6.38;4.18;;;21.20;99.90;;;;;;5066825;28;20533;-69
2022/06/12 06:56:05;;;;;;;6.20;3.72;;;21.20;99.90;;;;;;5056307;28;20021;-69
2022/06/12 06:58:32;;;;;;;6.40;4.07;;;21.20;99.90;;;;;;5075168;28;20032;-66
2022/06/12 07:00:59;;;;;;;5.63;4.13;;;21.30;99.90;;;;;;5066858;28;20047;-70
2022/06/12 07:03:25;;;;;;;8.75;4.68;;;21.40;99.90;;;;;;5072403;28;20028;-71
2022/06/12 07:05:52;;;;;;;4.05;3.55;;;21.60;99.90;;;;;;5074377;28;20027;-70
2022/06/12 07:08:18;;;;;;;5.40;4.20;;;21.70;99.90;;;;;;5070330;28;20035;-71
2022/06/12 07:10:44;;;;;;;5.35;3.70;;;21.80;99.90;;;;;;5062984;28;20419;-72
2022/06/12 07:13:12;;;;;;;6.35;3.80;;;22.00;99.90;;;;;;5058800;28;20112;-70
2022/06/12 07:15:39;;;;;;;5.93;3.80;;;22.20;99.90;;;;;;5055043;28;20089;-69
2022/06/12 07:18:06;;;;;;;5.80;3.85;;;22.40;99.90;;;;;;5061588;28;20025;-71
2022/06/12 07:20:35;;;;;;;10.75;4.20;;;22.50;99.90;;;;;;5073259;28;20113;-70
2022/06/12 07:23:03;;;;;;;6.60;3.53;;;22.50;99.90;;;;;;5068899;28;20025;-70
2022/06/12 07:25:30;;;;;;;7.60;4.22;;;22.60;99.90;;;;;;5077127;28;20083;-69
2022/06/12 07:27:56;;;;;;;7.72;3.95;;;22.70;99.90;;;;;;5058596;28;20020;-69
2022/06/12 07:30:23;;;;;;;4.70;3.35;;;22.80;99.90;;;;;;5069826;28;20128;-71
2022/06/12 07:32:50;;;;;;;6.07;4.32;;;22.80;99.90;;;;;;5068722;28;20119;-70
2022/06/12 07:35:17;;;;;;;6.53;3.95;;;22.90;99.90;;;;;;5054010;28;20095;-70
2022/06/12 07:37:44;;;;;;;6.03;4.00;;;23.00;99.90;;;;;;5063821;28;20051;-68
2022/06/12 07:40:20;;;;;;;4.30;3.35;;;23.10;99.90;;;;;;5064847;28;20670;-68
2022/06/12 07:42:46;;;;;;;5.85;3.67;;;23.20;99.50;;;;;;5071819;28;20055;-69
2022/06/12 07:45:12;;;;;;;6.00;3.33;;;23.40;99.10;;;;;;5060615;28;20060;-71
2022/06/12 07:47:38;;;;;;;4.45;3.55;;;23.50;99.00;;;;;;5069234;28;20420;-70
2022/06/12 07:50:04;;;;;;;6.47;3.85;;;23.60;98.70;;;;;;5064684;28;20029;-71
2022/06/12 07:52:30;;;;;;;8.00;3.53;;;23.70;98.70;;;;;;5076739;28;20024;-73
2022/06/12 07:54:56;;;;;;;3.17;2.80;;;23.80;98.50;;;;;;5072148;28;20039;-72
2022/06/12 07:57:23;;;;;;;6.30;3.65;;;23.90;98.30;;;;;;5076286;28;20024;-69
2022/06/12 07:59:49;;;;;;;6.40;3.72;;;24.10;98.30;;;;;;5063338;28;20063;-73
2022/06/12 08:02:15;;;;;;;7.53;3.97;;;24.20;96.90;;;;;;5076792;28;20458;-74
2022/06/12 08:04:41;;;;;;;4.80;3.50;;;24.30;97.10;;;;;;5076875;28;20028;-73
2022/06/12 08:07:07;;;;;;;4.65;3.47;;;24.40;96.80;;;;;;5066457;28;20028;-75
2022/06/12 08:09:33;;;;;;;4.22;3.20;;;24.60;96.40;;;;;;5066680;28;20496;-72
2022/06/12 08:11:59;;;;;;;5.30;3.13;;;24.60;95.30;;;;;;5072669;28;20393;-71
2022/06/12 08:14:25;;;;;;;7.05;3.88;;;24.70;94.90;;;;;;5065539;28;20021;-71
2022/06/12 08:16:52;;;;;;;5.50;3.50;;;24.70;95.00;;;;;;5062783;28;20099;-72
2022/06/12 08:22:04;;;;;;;7.25;3.58;;;24.70;95.00;;;;;;5065831;28;20087;-72
2022/06/12 08:24:31;;;;;;;5.78;3.22;;;24.90;94.50;;;;;;5065097;28;20439;-72
2022/06/12 08:26:58;;;;;;;3.75;2.28;;;25.00;93.70;;;;;;5071458;28;20020;-71
2022/06/12 08:29:24;;;;;;;7.88;3.20;;;25.00;93.80;;;;;;5080427;28;20131;-71
2022/06/12 08:32:01;;;;;;;9.70;2.78;;;25.00;93.60;;;;;;5090346;28;20028;-71
2022/06/12 08:34:41;;;;;;;8.15;3.60;;;25.10;93.30;;;;;;5080102;28;20047;-73
2022/06/12 08:37:12;;;;;;;4.40;2.88;;;25.40;92.80;;;;;;5070932;28;20193;-73
2022/06/12 08:39:38;;;;;;;9.20;3.80;;;25.40;92.90;;;;;;5083065;28;20105;-73
2022/06/12 08:42:43;;;;;;;8.57;2.97;;;25.60;92.20;;;;;;5086115;28;20039;-75
2022/06/12 08:45:17;;;;;;;7.13;3.30;;;25.70;91.60;;;;;;5030458;28;20044;-73
2022/06/12 08:47:57;;;;;;;3.78;3.05;;;25.90;90.80;;;;;;5086548;28;20519;-71
2022/06/12 08:50:36;;;;;;;5.72;2.70;;;25.90;91.00;;;;;;5083669;28;20024;-71
2022/06/12 08:53:30;;;;;;;5.13;2.60;;;26.00;89.90;;;;;;5086725;28;20056;-72
2022/06/12 08:56:00;;;;;;;5.45;2.63;;;26.00;89.50;;;;;;5077710;28;20030;-72
2022/06/12 08:58:36;;;;;;;5.50;2.88;;;26.20;87.10;;;;;;5096819;28;20032;-72
2022/06/12 09:01:02;;;;;;;5.93;2.50;;;26.20;85.00;;;;;;5074294;28;20542;-72
2022/06/12 09:03:32;;;;;;;10.18;3.30;;;26.20;85.40;;;;;;5086037;28;20802;-70
2022/06/12 09:06:16;;;;;;;2.83;2.40;;;26.20;84.70;;;;;;5087840;28;20028;-72
2022/06/12 09:08:59;;;;;;;7.25;2.60;;;26.20;85.40;;;;;;5075623;28;20031;-71
2022/06/12 09:11:39;;;;;;;2.55;1.98;;;26.40;83.70;;;;;;5074779;28;20025;-75
2022/06/12 09:14:22;;;;;;;;;;;26.50;83.00;;;;;;5081033;28;20047;-69
2022/06/12 09:16:54;;;;;;;4.85;2.33;;;26.60;82.80;;;;;;5081450;28;19904;-72
2022/06/12 09:19:39;;;;;;;5.93;2.17;;;26.80;80.60;;;;;;5087852;28;20465;-72
2022/06/12 09:22:24;;;;;;;3.00;2.10;;;26.90;79.50;;;;;;5079571;28;20481;-70
2022/06/12 09:25:12;;;;;;;2.88;2.10;;;27.10;79.10;;;;;;5077251;28;20056;-70
2022/06/12 09:28:09;;;;;;;4.00;2.10;;;27.20;77.80;;;;;;5090025;28;20020;-71
2022/06/12 09:30:48;;;;;;;4.25;2.20;;;27.30;77.20;;;;;;5086125;28;20143;-71
2022/06/12 09:33:56;;;;;;;3.35;2.30;;;27.50;76.10;;;;;;5078299;28;20036;-71
2022/06/12 09:36:44;;;;;;;5.00;2.42;;;27.60;74.60;;;;;;5064731;28;20036;-71
2022/06/12 09:39:26;;;;;;;3.58;2.03;;;27.80;73.40;;;;;;5083113;28;20120;-73
2022/06/12 09:42:17;;;;;;;5.35;2.20;;;27.90;73.20;;;;;;5082198;28;20043;-71
2022/06/12 09:44:48;;;;;;;2.60;1.90;;;28.00;73.00;;;;;;5086314;28;20038;-73
2022/06/12 09:47:44;;;;;;;3.60;2.40;;;27.90;73.10;;;;;;5091545;28;20031;-72
2022/06/12 09:50:20;;;;;;;5.20;3.03;;;28.00;73.20;;;;;;5088182;28;20024;-73
2022/06/12 09:53:30;;;;;;;4.40;2.38;;;28.00;72.90;;;;;;5081856;28;20051;-75
2022/06/12 09:56:04;;;;;;;3.63;2.28;;;28.30;71.00;;;;;;4982470;28;20037;-74
2022/06/12 09:58:43;;;;;;;4.65;2.50;;;28.30;71.40;;;;;;5085672;28;20524;-76
2022/06/12 10:01:26;;;;;;;5.68;2.33;;;28.40;70.50;;;;;;5081858;28;20500;-75
2022/06/12 10:04:12;;;;;;;3.55;2.20;;;28.50;70.50;;;;;;5090740;28;20468;-75
2022/06/12 10:06:43;;;;;;;2.50;1.90;;;28.60;70.40;;;;;;5093767;28;20064;-75
2022/06/12 10:09:24;;;;;;;4.45;2.45;;;28.60;70.00;;;;;;5081596;28;20024;-81
2022/06/12 10:11:58;;;;;;;5.07;2.60;;;28.80;68.90;;;;;;5089822;28;20448;-75
2022/06/12 10:14:48;;;;;;;2.90;2.33;;;28.90;67.80;;;;;;5093536;28;20023;-74
2022/06/12 10:17:46;;;;;;;4.38;2.22;;;28.90;67.50;;;;;;5077341;28;20496;-73
2022/06/12 10:20:26;;;;;;;4.03;2.30;;;28.60;67.10;;;;;;5089655;28;20025;-74
2022/06/12 10:22:54;;;;;;;7.32;2.17;;;28.40;67.30;;;;;;5091284;28;20040;-73
2022/06/12 10:25:33;;;;;;;4.30;2.20;;;28.40;67.60;;;;;;5088489;28;20130;-75
2022/06/12 10:28:24;;;;;;;4.68;2.47;;;28.50;67.80;;;;;;5090708;28;20024;-73
2022/06/12 10:31:01;;;;;;;3.03;2.08;;;28.60;67.50;;;;;;5072575;28;20261;-74
2022/06/12 10:33:35;;;;;;;5.25;2.10;;;28.80;67.10;;;;;;5073602;28;20021;-74
2022/06/12 10:36:03;;;;;;;3.08;1.95;;;29.00;66.80;;;;;;5074163;28;20021;-75
2022/06/12 10:38:34;;;;;;;4.03;2.47;;;29.20;66.60;;;;;;5071862;28;20036;-74
2022/06/12 10:41:03;;;;;;;7.10;2.17;;;29.40;65.40;;;;;;5074079;28;20036;-73
2022/06/12 10:43:34;;;;;;;7.07;2.23;;;29.50;65.40;;;;;;5077071;28;20028;-74
2022/06/12 10:46:02;;;;;;;3.42;2.00;;;29.50;64.40;;;;;;5067635;28;20124;-74
2022/06/12 10:48:34;;;;;;;5.57;2.30;;;29.60;63.90;;;;;;5076299;28;20028;-75
2022/06/12 10:51:20;;;;;;;4.93;2.60;;;29.40;64.50;;;;;;5068909;28;20036;-76
2022/06/12 10:53:46;;;;;;;3.60;2.10;;;29.10;65.20;;;;;;5074130;28;20071;-75
2022/06/12 10:56:41;;;;;;;5.97;2.28;;;28.80;65.30;;;;;;5077080;28;20057;-74
2022/06/12 10:59:18;;;;;;;2.75;2.33;;;28.60;65.50;;;;;;5048161;28;20044;-71
2022/06/12 11:01:47;;;;;;;4.32;2.28;;;28.60;67.10;;;;;;5067662;28;20036;-72
2022/06/12 11:05:09;;;;;;;2.47;2.00;;;28.70;66.40;;;;;;5065432;28;20090;-71
2022/06/12 11:07:40;;;;;;;3.15;2.25;;;29.00;65.50;;;;;;4991622;28;20232;-72
2022/06/12 11:10:29;;;;;;;9.43;2.28;;;29.40;65.10;;;;;;4989638;28;20030;-72
2022/06/12 11:13:18;;;;;;;6.90;2.28;;;29.70;64.50;;;;;;4990016;28;20041;-74
2022/06/12 11:15:44;;;;;;;4.20;1.88;;;30.00;64.30;;;;;;4989357;28;20073;-71
2022/06/12 11:18:21;;;;;;;5.55;2.00;;;30.10;63.00;;;;;;4986248;28;20049;-71
2022/06/12 11:20:49;;;;;;;4.07;2.50;;;30.30;64.30;;;;;;4989393;28;20041;-73
2022/06/12 11:23:33;;;;;;;4.93;2.30;;;30.60;62.50;;;;;;4989018;28;20030;-71
2022/06/12 11:26:46;;;;;;;6.72;2.30;;;30.70;62.00;;;;;;4988757;28;20096;-71
2022/06/12 11:29:30;;;;;;;4.03;2.42;;;30.90;62.30;;;;;;4988776;28;20046;-70
2022/06/12 11:32:20;;;;;;;4.53;2.30;;;30.80;61.10;;;;;;4984153;28;20857;-71
2022/06/12 11:35:06;;;;;;;4.20;1.92;;;30.70;61.80;;;;;;4984033;28;20466;-72
2022/06/12 11:37:54;;;;;;;2.80;1.90;;;30.60;62.00;;;;;;4999368;28;20041;-73
2022/06/12 11:40:49;;;;;;;4.95;2.20;;;30.50;61.70;;;;;;5060433;28;20531;-72
2022/06/12 11:43:40;;;;;;;2.92;2.20;;;30.70;61.90;;;;;;5062907;28;20101;-74
2022/06/12 11:46:24;;;;;;;3.40;2.00;;;30.40;61.30;;;;;;5070566;28;20017;-74
2022/06/12 11:49:15;;;;;;;6.63;2.78;;;30.30;62.50;;;;;;5067819;28;20035;-74
2022/06/12 11:51:46;;;;;;;4.40;2.15;;;30.30;61.10;;;;;;5067955;28;20080;-74
2022/06/12 11:54:25;;;;;;;3.28;2.35;;;30.10;61.80;;;;;;5063909;28;20028;-73
2022/06/12 11:57:00;;;;;;;3.78;2.40;;;30.20;62.70;;;;;;5066304;28;20098;-72
2022/06/12 11:59:49;;;;;;;9.27;2.38;;;30.30;60.90;;;;;;5069171;28;20031;-77
2022/06/12 12:02:39;;;;;;;4.40;2.20;;;30.40;61.00;;;;;;5066366;28;20485;-75
2022/06/12 12:05:25;;;;;;;2.92;2.17;;;30.40;61.60;;;;;;5069061;28;20021;-76
2022/06/12 12:08:12;;;;;;;4.80;2.30;;;30.40;60.70;;;;;;5068637;28;20028;-74
2022/06/12 12:10:51;;;;;;;5.43;2.00;;;30.60;61.70;;;;;;5065166;28;20033;-75
2022/06/12 12:13:25;;;;;;;3.80;2.22;;;30.80;60.00;;;;;;5066613;28;20028;-79
2022/06/12 12:15:55;;;;;;;4.10;1.83;;;30.80;60.80;;;;;;5067300;28;20029;-73
2022/06/12 12:18:32;;;;;;;3.13;2.22;;;30.70;60.50;;;;;;5070538;28;20025;-71
2022/06/12 12:21:00;;;;;;;4.47;2.67;;;30.70;61.00;;;;;;5067947;28;20060;-71
2022/06/12 12:23:29;;;;;;;3.30;2.15;;;30.70;60.50;;;;;;5067925;28;20032;-74
2022/06/12 12:26:22;;;;;;;3.28;2.05;;;30.70;60.10;;;;;;5068634;28;20442;-70
2022/06/12 12:28:53;;;;;;;3.53;2.30;;;30.70;60.20;;;;;;5062614;28;20386;-74
2022/06/12 12:31:18;;;;;;;4.57;2.17;;;30.90;59.80;;;;;;5089053;28;20078;-72
2022/06/12 12:33:47;;;;;;;5.40;2.08;;;31.00;59.90;;;;;;5088962;28;20043;-71
2022/06/12 12:41:53;;;;;;;3.05;2.00;;;30.50;60.10;;;;;;5086687;28;20055;-71
2022/06/12 12:44:37;;;;;;;7.75;2.22;;;30.60;60.20;;;;;;5087202;28;20107;-71
2022/06/12 12:47:15;;;;;;;3.13;2.08;;;30.60;59.70;;;;;;5089426;28;20079;-70
2022/06/12 12:49:42;;;;;;;4.57;2.03;;;30.30;59.60;;;;;;5090472;28;20019;-71
2022/06/12 12:52:20;;;;;;;5.15;2.13;;;30.00;59.90;;;;;;5092383;28;20029;-71
2022/06/12 12:55:29;;;;;;;3.88;2.28;;;29.90;60.60;;;;;;5089362;28;20031;-73
2022/06/12 12:57:59;;;;;;;3.72;2.00;;;30.00;60.80;;;;;;5085272;28;20070;-72
2022/06/12 13:00:33;;;;;;;8.98;2.17;;;30.40;60.40;;;;;;5086564;28;20028;-72
2022/06/12 13:03:20;;;;;;;4.85;1.90;;;30.40;61.20;;;;;;5090030;28;20407;-72
2022/06/12 13:05:46;;;;;;;6.30;2.45;;;30.20;59.60;;;;;;5084959;28;20236;-70
2022/06/12 13:08:28;;;;;;;7.60;1.90;;;29.90;60.40;;;;;;5090127;28;20099;-70
2022/06/12 13:11:28;;;;;;;5.32;2.15;;;29.90;60.60;;;;;;5087764;28;20032;-71
2022/06/12 13:14:02;;;;;;;2.13;1.70;;;30.20;60.50;;;;;;5082643;28;21328;-70
2022/06/12 13:16:49;;;;;;;4.70;2.08;;;30.80;60.40;;;;;;5081220;28;21176;-71
2022/06/12 13:19:34;;;;;;;4.75;1.77;;;31.40;58.80;;;;;;5079637;28;20104;-72
2022/06/12 13:22:10;;;;;;;3.50;1.88;;;31.40;59.60;;;;;;5083070;28;20039;-70
2022/06/12 13:24:44;;;;;;;2.35;1.60;;;31.50;59.60;;;;;;5087468;28;20050;-74
2022/06/12 13:27:25;;;;;;;3.03;1.88;;;31.70;58.70;;;;;;5085648;28;20046;-72
2022/06/12 13:29:53;;;;;;;4.30;1.95;;;32.00;59.30;;;;;;5082248;28;20052;-71
2022/06/12 13:32:35;;;;;;;4.10;1.70;;;32.10;58.30;;;;;;5071243;28;20048;-73
2022/06/12 13:35:21;;;;;;;3.63;1.70;;;32.20;58.30;;;;;;5066708;28;20500;-74
2022/06/12 13:37:50;;;;;;;2.95;1.83;;;32.10;57.80;;;;;;5079651;28;20044;-72
2022/06/12 13:40:38;;;;;;;4.55;1.90;;;31.90;58.10;;;;;;5070998;28;20108;-73
2022/06/12 13:43:19;;;;;;;3.20;1.70;;;31.60;58.90;;;;;;5066396;28;20150;-69